Terminal Aerodrome Forecast
Issued by NWS Bismarck, ND

Home | Current Version | Previous Version | Graphics & Text | Print | Product List | Glossary On
Versions: 1 2 3 4 5 6 7 8 9 10 11 12 13 14 15
713
FTUS43 KBIS 200529
TAFBIS
TAF
KBIS 200529Z 2006/2106 33010KT P6SM SCT120 BKN150
     FM201800 01004KT P6SM FEW120 SCT200
     FM210000 06005KT P6SM FEW140 SCT200
     FM210500 12004KT P6SM FEW130 SCT200=

USA.gov is the U.S. government's official web portal to all federal, state and local government web resources and services.